createdAt,value
2023-03-29T00:00:52.064Z,4.90
2023-03-29T00:03:55.320Z,4.90
2023-03-29T00:07:04.117Z,4.90
2023-03-29T00:10:11.165Z,5.00
2023-03-29T00:13:14.319Z,5.00
2023-03-29T00:16:17.569Z,5.00
2023-03-29T00:19:20.693Z,4.90
2023-03-29T00:22:24.372Z,5.00
2023-03-29T00:25:28.988Z,4.90
2023-03-29T00:28:32.185Z,4.90
2023-03-29T00:31:35.455Z,4.90
2023-03-29T00:34:38.685Z,5.00
2023-03-29T00:37:42.057Z,4.90
2023-03-29T00:40:47.727Z,5.00
2023-03-29T00:43:59.535Z,4.90
2023-03-29T00:47:02.741Z,4.90
2023-03-29T00:50:12.479Z,4.90
2023-03-29T00:53:21.519Z,4.90
2023-03-29T00:56:29.939Z,4.80
2023-03-29T00:59:35.582Z,4.80
2023-03-29T01:02:40.775Z,4.80
2023-03-29T01:05:47.745Z,4.80
2023-03-29T01:08:54.928Z,4.70
2023-03-29T01:12:03.691Z,4.70
2023-03-29T01:15:11.222Z,4.60
2023-03-29T01:18:14.957Z,4.60
2023-03-29T01:21:23.607Z,4.60
2023-03-29T01:24:50.561Z,4.60
2023-03-29T01:27:58.511Z,4.60
2023-03-29T01:31:08.426Z,4.50
2023-03-29T01:34:16.370Z,4.50
2023-03-29T01:37:24.900Z,4.50
2023-03-29T01:40:28.402Z,4.40
2023-03-29T01:43:37.596Z,4.50
2023-03-29T01:46:46.922Z,4.50
2023-03-29T01:49:58.440Z,4.50
2023-03-29T01:53:06.489Z,4.50
2023-03-29T01:56:14.210Z,4.50
2023-03-29T01:59:22.261Z,4.50
2023-03-29T02:02:28.369Z,4.40
2023-03-29T02:05:33.283Z,4.40
2023-03-29T02:08:37.173Z,4.30
2023-03-29T02:11:44.534Z,4.40
2023-03-29T02:14:49.278Z,4.30
2023-03-29T02:17:52.947Z,4.40
2023-03-29T02:20:59.008Z,4.40
2023-03-29T02:24:07.058Z,4.40
2023-03-29T02:27:10.776Z,4.40
2023-03-29T02:30:19.577Z,4.50
2023-03-29T02:33:27.562Z,4.40
2023-03-29T02:36:34.942Z,4.40
2023-03-29T02:39:39.290Z,4.30
2023-03-29T02:42:44.994Z,4.30
2023-03-29T02:45:50.436Z,4.40
2023-03-29T02:48:55.626Z,4.30
2023-03-29T02:52:02.489Z,4.30
2023-03-29T02:55:09.840Z,4.40
2023-03-29T02:58:13.510Z,4.40
2023-03-29T03:01:20.423Z,4.40
2023-03-29T03:04:25.521Z,4.40
2023-03-29T03:07:29.797Z,4.40
2023-03-29T03:10:33.805Z,4.40
2023-03-29T03:13:37.115Z,4.30
2023-03-29T03:16:41.646Z,4.40
2023-03-29T03:19:45.257Z,4.40
2023-03-29T03:22:49.011Z,4.40
2023-03-29T03:25:52.970Z,4.40
2023-03-29T03:28:56.304Z,4.30
2023-03-29T03:32:00.950Z,4.30
2023-03-29T03:35:05.571Z,4.30
2023-03-29T03:38:08.757Z,4.30
2023-03-29T03:41:11.912Z,4.40
2023-03-29T03:44:15.030Z,4.40
2023-03-29T03:47:19.547Z,4.30
2023-03-29T03:50:23.125Z,4.30
2023-03-29T03:53:28.494Z,4.30
2023-03-29T03:56:31.645Z,4.30
2023-03-29T03:59:34.809Z,4.30
2023-03-29T04:02:39.393Z,4.30
2023-03-29T04:05:43.782Z,4.40
2023-03-29T04:08:48.032Z,4.40
2023-03-29T04:11:53.198Z,4.30
2023-03-29T04:14:56.796Z,4.40
2023-03-29T04:18:02.039Z,4.40
2023-03-29T04:21:05.712Z,4.40
2023-03-29T04:24:09.500Z,4.50
2023-03-29T04:27:12.636Z,4.50
2023-03-29T04:30:16.025Z,4.50
2023-03-29T04:33:21.171Z,4.60
2023-03-29T04:36:24.480Z,4.60
2023-03-29T04:39:34.368Z,4.60
2023-03-29T04:42:38.102Z,4.60
2023-03-29T04:45:41.265Z,4.60
2023-03-29T04:48:48.677Z,4.60
2023-03-29T04:51:51.848Z,4.60
2023-03-29T04:54:55.002Z,4.60
2023-03-29T04:57:58.251Z,4.70
2023-03-29T05:01:02.034Z,4.70
2023-03-29T05:04:06.964Z,4.70
2023-03-29T05:07:10.148Z,4.80
2023-03-29T05:10:13.556Z,4.80
2023-03-29T05:13:16.789Z,4.80
2023-03-29T05:16:20.734Z,4.80
2023-03-29T05:19:32.088Z,4.90
2023-03-29T05:22:36.367Z,4.90
2023-03-29T05:25:40.638Z,4.90
2023-03-29T05:28:43.953Z,4.90
2023-03-29T05:31:47.351Z,5.00
2023-03-29T05:34:52.960Z,5.00
2023-03-29T05:37:56.463Z,5.10
2023-03-29T05:41:00.182Z,5.10
2023-03-29T05:44:03.623Z,5.20
2023-03-29T05:47:07.260Z,5.30
2023-03-29T05:50:12.438Z,5.30
2023-03-29T05:53:15.888Z,5.30
2023-03-29T05:56:19.429Z,5.30
2023-03-29T05:59:23.674Z,5.30
2023-03-29T06:02:28.634Z,5.30
2023-03-29T06:05:33.351Z,5.30
2023-03-29T06:08:37.655Z,5.40
2023-03-29T06:11:40.885Z,5.40
2023-03-29T06:14:44.048Z,5.50
2023-03-29T06:17:47.283Z,5.60
2023-03-29T06:20:52.628Z,5.60
2023-03-29T06:23:55.760Z,5.70
2023-03-29T06:26:59.075Z,5.80
2023-03-29T06:30:02.793Z,5.90
2023-03-29T06:33:07.138Z,6.00
2023-03-29T06:36:14.028Z,6.00
2023-03-29T06:39:17.207Z,6.10
2023-03-29T06:42:21.820Z,6.10
2023-03-29T06:45:26.757Z,6.20
2023-03-29T06:48:31.786Z,6.30
2023-03-29T06:51:36.716Z,6.40
2023-03-29T06:54:40.770Z,6.50
2023-03-29T06:57:43.982Z,6.50
2023-03-29T07:00:47.570Z,6.60
2023-03-29T07:03:50.830Z,6.60
2023-03-29T07:07:01.610Z,6.70
2023-03-29T07:10:05.623Z,6.80
2023-03-29T07:13:12.219Z,6.90
2023-03-29T07:16:15.585Z,7.00
2023-03-29T07:19:19.753Z,7.10
2023-03-29T07:22:24.425Z,7.20
2023-03-29T07:25:30.046Z,7.20
2023-03-29T07:28:33.316Z,7.30
2023-03-29T07:31:40.840Z,7.30
2023-03-29T07:34:44.464Z,7.30
2023-03-29T07:37:50.613Z,7.30
2023-03-29T07:40:54.467Z,7.30
2023-03-29T07:43:57.803Z,7.30
2023-03-29T07:47:02.476Z,7.40
2023-03-29T07:50:07.439Z,7.50
2023-03-29T07:53:12.620Z,7.50
2023-03-29T07:56:15.796Z,7.60
2023-03-29T07:59:19.075Z,7.70
2023-03-29T08:02:22.739Z,7.70
2023-03-29T08:05:40.048Z,7.80
2023-03-29T08:08:45.677Z,7.80
2023-03-29T08:11:49.024Z,7.80
2023-03-29T08:14:52.170Z,7.80
2023-03-29T08:17:55.438Z,7.90
2023-03-29T08:20:58.689Z,8.00
2023-03-29T08:24:03.320Z,8.00
2023-03-29T08:27:06.468Z,8.00
2023-03-29T08:30:11.047Z,8.10
2023-03-29T08:33:14.347Z,8.10
2023-03-29T08:36:17.680Z,8.10
2023-03-29T08:39:22.426Z,8.20
2023-03-29T08:42:43.007Z,8.40
2023-03-29T08:45:54.631Z,8.50
2023-03-29T08:49:02.344Z,8.50
2023-03-29T08:52:11.659Z,8.70
2023-03-29T08:55:32.298Z,8.90
2023-03-29T08:58:37.580Z,8.90
2023-03-29T09:01:41.104Z,8.90
2023-03-29T09:04:44.545Z,9.00
2023-03-29T09:07:48.386Z,9.00
2023-03-29T09:11:06.857Z,9.10
2023-03-29T09:14:39.262Z,9.00
2023-03-29T09:17:56.637Z,9.10
2023-03-29T09:21:03.102Z,9.10
2023-03-29T09:24:18.590Z,9.20
2023-03-29T09:27:27.692Z,9.30
2023-03-29T09:30:35.811Z,9.30
2023-03-29T09:33:43.683Z,9.30
2023-03-29T09:36:52.700Z,9.30
2023-03-29T09:39:57.659Z,9.20
2023-03-29T09:43:04.227Z,9.20
2023-03-29T09:46:16.325Z,9.20
2023-03-29T09:49:24.460Z,9.20
2023-03-29T09:52:27.769Z,9.20
2023-03-29T09:55:34.109Z,9.20
2023-03-29T09:58:38.967Z,9.30
2023-03-29T10:01:45.407Z,9.30
2023-03-29T10:04:55.489Z,9.40
2023-03-29T10:08:01.827Z,9.50
2023-03-29T10:11:10.565Z,9.60
2023-03-29T10:14:19.104Z,9.60
2023-03-29T10:17:24.658Z,9.70
2023-03-29T10:20:28.197Z,9.80
2023-03-29T10:23:34.060Z,9.80
2023-03-29T10:26:40.060Z,9.90
2023-03-29T10:29:44.828Z,9.90
2023-03-29T10:32:48.237Z,9.90
2023-03-29T10:35:52.305Z,9.90
2023-03-29T10:38:58.964Z,9.80
2023-03-29T10:42:03.996Z,9.80
2023-03-29T10:45:25.836Z,9.80
2023-03-29T10:48:31.480Z,9.90
2023-03-29T10:51:34.966Z,9.90
2023-03-29T10:54:38.292Z,10.10
2023-03-29T10:57:54.372Z,10.20
2023-03-29T11:00:59.488Z,10.40
2023-03-29T11:04:20.931Z,10.50
2023-03-29T11:07:30.707Z,10.60
2023-03-29T11:10:46.108Z,10.60
2023-03-29T11:13:59.431Z,10.70
2023-03-29T11:17:18.421Z,10.60
2023-03-29T11:20:29.543Z,10.40
2023-03-29T11:23:43.524Z,10.30
2023-03-29T11:26:57.776Z,10.30
2023-03-29T11:30:08.491Z,10.30
2023-03-29T11:33:32.842Z,10.30
2023-03-29T11:36:43.105Z,10.50
2023-03-29T11:39:56.270Z,10.70
2023-03-29T11:43:04.595Z,10.80
2023-03-29T11:46:13.512Z,10.90
2023-03-29T11:49:25.777Z,11.20
2023-03-29T11:52:34.910Z,11.10
2023-03-29T11:55:40.462Z,11.30
2023-03-29T11:58:47.006Z,11.40
2023-03-29T12:01:54.156Z,11.60
2023-03-29T12:05:03.494Z,11.80
2023-03-29T12:08:10.093Z,12.00
2023-03-29T12:11:20.624Z,12.40
2023-03-29T12:14:28.185Z,13.30
2023-03-29T12:17:35.739Z,14.40
2023-03-29T12:20:42.226Z,15.10
2023-03-29T12:23:47.417Z,15.50
2023-03-29T12:27:05.109Z,15.50
2023-03-29T12:30:27.370Z,15.60
2023-03-29T12:34:07.139Z,15.70
2023-03-29T12:37:29.990Z,15.70
2023-03-29T12:40:41.872Z,15.50
2023-03-29T12:43:45.876Z,15.30
2023-03-29T12:46:54.686Z,15.00
2023-03-29T12:49:59.781Z,14.70
2023-03-29T12:53:07.511Z,14.50
2023-03-29T12:56:15.236Z,14.50
2023-03-29T12:59:27.688Z,14.50
2023-03-29T13:02:39.387Z,14.50
2023-03-29T13:05:42.898Z,14.50
2023-03-29T13:08:48.506Z,14.60
2023-03-29T13:11:54.630Z,14.50
2023-03-29T13:15:00.729Z,14.40
2023-03-29T13:18:17.523Z,14.20
2023-03-29T13:21:30.015Z,14.20
2023-03-29T13:25:02.220Z,14.10
2023-03-29T13:28:13.092Z,13.90
2023-03-29T13:31:29.653Z,13.90
2023-03-29T13:34:41.095Z,13.90
2023-03-29T13:37:56.916Z,13.80
2023-03-29T13:41:04.320Z,13.50
2023-03-29T13:44:25.670Z,13.40
2023-03-29T13:51:28.296Z,12.80
2023-03-29T13:54:37.701Z,13.00
2023-03-29T13:57:46.911Z,13.30
2023-03-29T14:00:55.811Z,13.40
2023-03-29T14:04:00.109Z,13.40
2023-03-29T14:07:04.120Z,13.50
2023-03-29T14:10:08.499Z,13.60
2023-03-29T14:13:15.004Z,13.80
2023-03-29T14:16:18.769Z,13.80
2023-03-29T14:19:30.683Z,13.90
2023-03-29T14:22:35.084Z,13.50
2023-03-29T14:25:39.943Z,13.60
2023-03-29T14:28:47.877Z,13.70
2023-03-29T14:31:51.258Z,13.70
2023-03-29T14:34:54.763Z,13.60
2023-03-29T14:37:58.337Z,13.60
2023-03-29T14:41:03.503Z,13.40
2023-03-29T14:44:09.052Z,13.20
2023-03-29T14:47:19.978Z,13.00
2023-03-29T14:50:28.635Z,12.90
2023-03-29T14:53:34.525Z,12.80
2023-03-29T14:56:38.477Z,12.70
2023-03-29T14:59:44.717Z,12.80
2023-03-29T15:02:55.229Z,13.00
2023-03-29T15:06:02.298Z,12.80
2023-03-29T15:09:06.983Z,12.60
2023-03-29T15:12:17.008Z,12.70
2023-03-29T15:15:22.354Z,12.70
2023-03-29T15:18:30.035Z,12.80
2023-03-29T15:21:35.504Z,12.90
2023-03-29T15:24:45.148Z,12.80
2023-03-29T15:27:51.987Z,13.00
2023-03-29T15:31:07.277Z,13.00
2023-03-29T15:34:13.730Z,12.90
2023-03-29T15:37:16.939Z,12.70
2023-03-29T15:40:23.299Z,12.50
2023-03-29T15:43:27.367Z,12.40
2023-03-29T15:46:32.990Z,12.40
2023-03-29T15:49:36.187Z,12.30
2023-03-29T15:52:39.665Z,12.30
2023-03-29T15:55:45.783Z,12.40
2023-03-29T15:58:49.607Z,12.30
2023-03-29T16:01:55.305Z,12.30
2023-03-29T16:05:00.136Z,12.30
2023-03-29T16:08:03.328Z,12.10
2023-03-29T16:11:07.110Z,11.70
2023-03-29T16:14:23.124Z,11.30
2023-03-29T16:17:27.771Z,11.30
2023-03-29T16:20:31.185Z,11.20
2023-03-29T16:23:34.438Z,11.10
2023-03-29T16:26:39.208Z,11.10
2023-03-29T16:29:42.430Z,11.10
2023-03-29T16:32:47.335Z,10.90
2023-03-29T16:35:50.743Z,10.90
2023-03-29T16:38:54.560Z,10.80
2023-03-29T16:41:57.788Z,10.90
2023-03-29T16:45:02.273Z,11.00
2023-03-29T16:48:07.205Z,10.90
2023-03-29T16:51:11.488Z,10.80
2023-03-29T16:54:14.829Z,10.80
2023-03-29T16:57:18.097Z,10.70
2023-03-29T17:00:22.309Z,10.60
2023-03-29T17:03:27.768Z,10.50
2023-03-29T17:06:32.400Z,10.50
2023-03-29T17:09:36.249Z,10.40
2023-03-29T17:12:40.265Z,10.40
2023-03-29T17:15:43.538Z,10.40
2023-03-29T17:18:48.254Z,10.30
2023-03-29T17:21:51.862Z,10.30
2023-03-29T17:24:55.522Z,10.20
2023-03-29T17:27:58.802Z,10.20
2023-03-29T17:31:07.397Z,10.10
2023-03-29T17:34:12.217Z,10.10
2023-03-29T17:37:16.271Z,10.10
2023-03-29T17:40:19.968Z,10.00
2023-03-29T17:43:23.875Z,10.00
2023-03-29T17:46:27.843Z,9.80
2023-03-29T17:49:33.295Z,9.80
2023-03-29T17:52:40.098Z,9.80
2023-03-29T17:55:44.613Z,9.90
2023-03-29T17:58:49.514Z,9.90
2023-03-29T18:01:54.739Z,10.00
2023-03-29T18:05:01.989Z,9.90
2023-03-29T18:08:06.165Z,10.00
2023-03-29T18:11:12.292Z,10.00
2023-03-29T18:14:16.668Z,9.70
2023-03-29T18:17:20.915Z,9.70
2023-03-29T18:20:26.207Z,9.70
2023-03-29T18:23:30.687Z,9.60
2023-03-29T18:26:35.628Z,9.60
2023-03-29T18:29:40.637Z,9.60
2023-03-29T18:32:46.940Z,9.70
2023-03-29T18:35:54.303Z,9.60
2023-03-29T18:39:05.980Z,9.60
2023-03-29T18:42:12.168Z,9.60
2023-03-29T18:45:17.705Z,9.60
2023-03-29T18:48:23.755Z,9.50
2023-03-29T18:51:30.374Z,9.50
2023-03-29T18:54:35.346Z,9.50
2023-03-29T18:57:38.945Z,9.50
2023-03-29T19:00:44.564Z,9.40
2023-03-29T19:03:49.580Z,9.40
2023-03-29T19:06:56.136Z,9.30
2023-03-29T19:10:00.897Z,9.30
2023-03-29T19:13:07.218Z,9.30
2023-03-29T19:16:14.510Z,9.20
2023-03-29T19:19:19.896Z,9.10
2023-03-29T19:22:25.135Z,9.10
2023-03-29T19:25:33.049Z,9.00
2023-03-29T19:28:38.941Z,8.90
2023-03-29T19:31:44.298Z,8.80
2023-03-29T19:34:49.354Z,8.80
2023-03-29T19:37:55.570Z,8.70
2023-03-29T19:41:01.024Z,8.70
2023-03-29T19:44:06.542Z,8.60
2023-03-29T19:47:10.115Z,8.60
2023-03-29T19:50:14.670Z,8.50
2023-03-29T19:53:20.399Z,8.50
2023-03-29T19:56:25.947Z,8.40
2023-03-29T19:59:31.199Z,8.40
2023-03-29T20:02:35.293Z,8.30
2023-03-29T20:05:40.639Z,8.30
2023-03-29T20:08:46.369Z,8.30
2023-03-29T20:11:49.930Z,8.20
2023-03-29T20:14:54.405Z,8.20
2023-03-29T20:18:00.746Z,8.10
2023-03-29T20:21:06.360Z,8.00
2023-03-29T20:24:12.832Z,8.00
2023-03-29T20:27:16.758Z,8.00
2023-03-29T20:30:20.454Z,8.00
2023-03-29T20:33:24.424Z,7.90
2023-03-29T20:36:30.833Z,7.80
2023-03-29T20:39:35.851Z,7.80
2023-03-29T20:42:39.069Z,7.70
2023-03-29T20:45:52.215Z,7.60
2023-03-29T20:48:56.344Z,7.50
2023-03-29T20:52:04.649Z,7.50
2023-03-29T20:55:09.493Z,7.40
2023-03-29T20:58:12.714Z,7.40
2023-03-29T21:01:15.937Z,7.30
2023-03-29T21:04:19.932Z,7.30
2023-03-29T21:07:23.269Z,7.20
2023-03-29T21:10:28.702Z,7.10
2023-03-29T21:13:35.739Z,7.10
2023-03-29T21:16:41.737Z,7.10
2023-03-29T21:19:44.918Z,7.00
2023-03-29T21:22:48.139Z,7.00
2023-03-29T21:25:52.795Z,7.00
2023-03-29T21:28:56.185Z,6.90
2023-03-29T21:31:59.645Z,6.90
2023-03-29T21:35:02.897Z,6.80
2023-03-29T21:38:06.178Z,6.80
2023-03-29T21:41:12.446Z,6.70
2023-03-29T21:44:15.618Z,6.70
2023-03-29T21:47:18.806Z,6.70
2023-03-29T21:50:22.020Z,6.60
2023-03-29T21:53:26.089Z,6.60
2023-03-29T21:56:30.878Z,6.50
2023-03-29T21:59:34.107Z,6.50
2023-03-29T22:02:37.414Z,6.50
2023-03-29T22:05:41.386Z,6.50
2023-03-29T22:08:46.816Z,6.60
2023-03-29T22:11:51.968Z,6.50
2023-03-29T22:14:55.154Z,6.50
2023-03-29T22:17:59.851Z,6.50
2023-03-29T22:21:03.569Z,6.50
2023-03-29T22:24:07.453Z,6.40
2023-03-29T22:27:12.348Z,6.40
2023-03-29T22:30:16.472Z,6.30
2023-03-29T22:33:19.655Z,6.30
2023-03-29T22:36:24.541Z,6.30
2023-03-29T22:39:28.585Z,6.20
2023-03-29T22:42:33.157Z,6.20
2023-03-29T22:45:36.471Z,6.20
2023-03-29T22:48:39.989Z,6.20
2023-03-29T22:51:43.270Z,6.20
2023-03-29T22:54:46.417Z,6.20
2023-03-29T22:57:51.021Z,6.20
2023-03-29T23:00:54.292Z,6.20
2023-03-29T23:03:57.516Z,6.30
2023-03-29T23:07:02.079Z,6.30
2023-03-29T23:10:06.957Z,6.30
2023-03-29T23:13:13.601Z,6.40
2023-03-29T23:16:17.322Z,6.40
2023-03-29T23:19:20.615Z,6.50
2023-03-29T23:22:23.792Z,6.50
2023-03-29T23:25:27.403Z,6.50
2023-03-29T23:28:34.540Z,6.50
2023-03-29T23:31:38.091Z,6.50
2023-03-29T23:34:41.501Z,6.60
2023-03-29T23:37:45.002Z,6.60
2023-03-29T23:40:54.759Z,6.60
2023-03-29T23:43:59.353Z,6.60
2023-03-29T23:47:02.652Z,6.60
2023-03-29T23:50:06.994Z,6.60
2023-03-29T23:53:10.666Z,6.60
2023-03-29T23:56:13.834Z,6.60
2023-03-29T23:59:18.397Z,6.70
